sensor_id;sensor_type;location;lat;lon;timestamp;P1;durP1;ratioP1;P2;durP2;ratioP2
35578;SDS011;21687;48.900;9.188;2024-01-07T00:00:36;31.07;;;21.37;;
35578;SDS011;21687;48.900;9.188;2024-01-07T00:03:03;27.87;;;20.67;;
35578;SDS011;21687;48.900;9.188;2024-01-07T00:05:30;29.33;;;21.10;;
35578;SDS011;21687;48.900;9.188;2024-01-07T00:07:56;28.70;;;19.07;;
35578;SDS011;21687;48.900;9.188;2024-01-07T00:10:23;28.30;;;20.27;;
35578;SDS011;21687;48.900;9.188;2024-01-07T00:12:49;27.87;;;19.03;;
35578;SDS011;21687;48.900;9.188;2024-01-07T00:15:17;25.50;;;19.73;;
35578;SDS011;21687;48.900;9.188;2024-01-07T00:17:43;26.53;;;18.43;;
35578;SDS011;21687;48.900;9.188;2024-01-07T00:20:10;25.67;;;19.17;;
35578;SDS011;21687;48.900;9.188;2024-01-07T00:22:36;24.03;;;17.83;;
35578;SDS011;21687;48.900;9.188;2024-01-07T00:25:03;26.10;;;19.63;;
35578;SDS011;21687;48.900;9.188;2024-01-07T00:27:30;24.53;;;18.70;;
35578;SDS011;21687;48.900;9.188;2024-01-07T00:29:56;26.87;;;18.47;;
35578;SDS011;21687;48.900;9.188;2024-01-07T00:32:22;23.43;;;18.47;;
35578;SDS011;21687;48.900;9.188;2024-01-07T00:34:49;24.17;;;17.30;;
35578;SDS011;21687;48.900;9.188;2024-01-07T00:37:15;25.03;;;17.83;;
35578;SDS011;21687;48.900;9.188;2024-01-07T00:39:42;22.80;;;17.17;;
35578;SDS011;21687;48.900;9.188;2024-01-07T00:42:11;23.23;;;17.87;;
35578;SDS011;21687;48.900;9.188;2024-01-07T00:44:37;27.00;;;18.67;;
35578;SDS011;21687;48.900;9.188;2024-01-07T00:47:04;27.53;;;19.03;;
35578;SDS011;21687;48.900;9.188;2024-01-07T00:49:30;23.43;;;17.27;;
35578;SDS011;21687;48.900;9.188;2024-01-07T00:51:56;28.27;;;19.03;;
35578;SDS011;21687;48.900;9.188;2024-01-07T00:54:23;26.20;;;18.00;;
35578;SDS011;21687;48.900;9.188;2024-01-07T00:56:49;26.47;;;18.37;;
35578;SDS011;21687;48.900;9.188;2024-01-07T00:59:15;26.93;;;17.83;;
35578;SDS011;21687;48.900;9.188;2024-01-07T01:01:42;23.47;;;16.90;;
35578;SDS011;21687;48.900;9.188;2024-01-07T01:04:12;25.47;;;19.00;;
35578;SDS011;21687;48.900;9.188;2024-01-07T01:06:38;24.90;;;17.77;;
35578;SDS011;21687;48.900;9.188;2024-01-07T01:09:05;28.60;;;19.90;;
35578;SDS011;21687;48.900;9.188;2024-01-07T01:11:31;28.57;;;19.67;;
35578;SDS011;21687;48.900;9.188;2024-01-07T01:13:58;30.90;;;21.70;;
35578;SDS011;21687;48.900;9.188;2024-01-07T01:16:24;28.50;;;20.40;;
35578;SDS011;21687;48.900;9.188;2024-01-07T01:18:51;30.57;;;20.83;;
35578;SDS011;21687;48.900;9.188;2024-01-07T01:21:17;31.50;;;20.90;;
35578;SDS011;21687;48.900;9.188;2024-01-07T01:23:43;32.17;;;21.47;;
35578;SDS011;21687;48.900;9.188;2024-01-07T01:26:11;32.13;;;20.83;;
35578;SDS011;21687;48.900;9.188;2024-01-07T01:28:37;32.50;;;20.73;;
35578;SDS011;21687;48.900;9.188;2024-01-07T01:31:04;34.27;;;22.10;;
35578;SDS011;21687;48.900;9.188;2024-01-07T01:33:30;34.77;;;21.27;;
35578;SDS011;21687;48.900;9.188;2024-01-07T01:35:57;36.17;;;21.40;;
35578;SDS011;21687;48.900;9.188;2024-01-07T01:38:23;34.27;;;21.73;;
35578;SDS011;21687;48.900;9.188;2024-01-07T01:40:52;33.80;;;22.53;;
35578;SDS011;21687;48.900;9.188;2024-01-07T01:43:25;35.60;;;22.63;;
35578;SDS011;21687;48.900;9.188;2024-01-07T01:45:54;37.60;;;24.37;;
35578;SDS011;21687;48.900;9.188;2024-01-07T01:48:22;37.87;;;23.77;;
35578;SDS011;21687;48.900;9.188;2024-01-07T01:50:49;36.70;;;23.50;;
35578;SDS011;21687;48.900;9.188;2024-01-07T01:53:16;40.83;;;25.30;;
35578;SDS011;21687;48.900;9.188;2024-01-07T01:55:43;37.10;;;24.47;;
35578;SDS011;21687;48.900;9.188;2024-01-07T01:58:09;38.70;;;24.27;;
35578;SDS011;21687;48.900;9.188;2024-01-07T02:00:38;36.67;;;23.93;;
35578;SDS011;21687;48.900;9.188;2024-01-07T02:03:04;37.87;;;23.97;;
35578;SDS011;21687;48.900;9.188;2024-01-07T02:05:31;40.57;;;25.37;;
35578;SDS011;21687;48.900;9.188;2024-01-07T02:07:58;38.63;;;24.20;;
35578;SDS011;21687;48.900;9.188;2024-01-07T02:10:25;38.27;;;24.07;;
35578;SDS011;21687;48.900;9.188;2024-01-07T02:12:54;33.83;;;22.83;;
35578;SDS011;21687;48.900;9.188;2024-01-07T02:15:22;37.80;;;23.30;;
35578;SDS011;21687;48.900;9.188;2024-01-07T02:17:48;39.87;;;23.87;;
35578;SDS011;21687;48.900;9.188;2024-01-07T02:20:15;36.60;;;24.10;;
35578;SDS011;21687;48.900;9.188;2024-01-07T02:22:41;36.90;;;24.40;;
35578;SDS011;21687;48.900;9.188;2024-01-07T02:25:08;34.93;;;23.23;;
35578;SDS011;21687;48.900;9.188;2024-01-07T02:27:35;35.47;;;22.63;;
35578;SDS011;21687;48.900;9.188;2024-01-07T02:30:01;33.20;;;21.03;;
35578;SDS011;21687;48.900;9.188;2024-01-07T02:32:28;36.77;;;23.77;;
35578;SDS011;21687;48.900;9.188;2024-01-07T02:34:57;34.30;;;22.40;;
35578;SDS011;21687;48.900;9.188;2024-01-07T02:37:23;34.37;;;23.30;;
35578;SDS011;21687;48.900;9.188;2024-01-07T02:39:51;35.07;;;22.83;;
35578;SDS011;21687;48.900;9.188;2024-01-07T02:42:19;31.43;;;21.23;;
35578;SDS011;21687;48.900;9.188;2024-01-07T02:44:45;32.03;;;20.83;;
35578;SDS011;21687;48.900;9.188;2024-01-07T02:47:11;30.27;;;21.20;;
35578;SDS011;21687;48.900;9.188;2024-01-07T02:49:38;31.30;;;20.60;;
35578;SDS011;21687;48.900;9.188;2024-01-07T02:52:05;29.43;;;20.80;;
35578;SDS011;21687;48.900;9.188;2024-01-07T02:54:31;34.17;;;20.80;;
35578;SDS011;21687;48.900;9.188;2024-01-07T02:56:57;30.93;;;19.97;;
35578;SDS011;21687;48.900;9.188;2024-01-07T02:59:24;29.80;;;20.50;;
35578;SDS011;21687;48.900;9.188;2024-01-07T03:01:50;32.23;;;20.93;;
35578;SDS011;21687;48.900;9.188;2024-01-07T03:04:17;30.67;;;20.77;;
35578;SDS011;21687;48.900;9.188;2024-01-07T03:06:44;31.57;;;20.83;;
35578;SDS011;21687;48.900;9.188;2024-01-07T03:09:10;34.53;;;20.53;;
35578;SDS011;21687;48.900;9.188;2024-01-07T03:15:00;31.77;;;20.80;;
35578;SDS011;21687;48.900;9.188;2024-01-07T03:17:26;35.57;;;22.13;;
35578;SDS011;21687;48.900;9.188;2024-01-07T03:19:53;34.17;;;21.80;;
35578;SDS011;21687;48.900;9.188;2024-01-07T03:22:19;34.57;;;22.57;;
35578;SDS011;21687;48.900;9.188;2024-01-07T03:24:46;32.77;;;22.03;;
35578;SDS011;21687;48.900;9.188;2024-01-07T03:27:12;33.07;;;22.30;;
35578;SDS011;21687;48.900;9.188;2024-01-07T03:29:39;35.10;;;22.43;;
35578;SDS011;21687;48.900;9.188;2024-01-07T03:32:06;36.13;;;23.07;;
35578;SDS011;21687;48.900;9.188;2024-01-07T03:34:33;34.93;;;23.43;;
35578;SDS011;21687;48.900;9.188;2024-01-07T03:36:59;36.80;;;22.77;;
35578;SDS011;21687;48.900;9.188;2024-01-07T03:39:25;32.47;;;21.63;;
35578;SDS011;21687;48.900;9.188;2024-01-07T03:41:55;32.83;;;22.37;;
35578;SDS011;21687;48.900;9.188;2024-01-07T03:44:21;37.60;;;22.70;;
35578;SDS011;21687;48.900;9.188;2024-01-07T03:46:48;34.60;;;22.37;;
35578;SDS011;21687;48.900;9.188;2024-01-07T03:49:14;34.90;;;22.17;;
35578;SDS011;21687;48.900;9.188;2024-01-07T03:51:40;31.77;;;21.00;;
35578;SDS011;21687;48.900;9.188;2024-01-07T03:54:07;36.47;;;22.77;;
35578;SDS011;21687;48.900;9.188;2024-01-07T03:56:33;35.53;;;20.80;;
35578;SDS011;21687;48.900;9.188;2024-01-07T03:58:59;34.00;;;20.97;;
35578;SDS011;21687;48.900;9.188;2024-01-07T04:01:26;35.90;;;21.83;;
35578;SDS011;21687;48.900;9.188;2024-01-07T04:03:52;33.77;;;21.80;;
35578;SDS011;21687;48.900;9.188;2024-01-07T04:06:18;34.23;;;21.47;;
35578;SDS011;21687;48.900;9.188;2024-01-07T04:08:46;33.03;;;21.30;;
35578;SDS011;21687;48.900;9.188;2024-01-07T04:11:12;33.10;;;20.00;;
35578;SDS011;21687;48.900;9.188;2024-01-07T04:13:38;34.77;;;21.07;;
35578;SDS011;21687;48.900;9.188;2024-01-07T04:16:05;35.43;;;20.67;;
35578;SDS011;21687;48.900;9.188;2024-01-07T04:18:40;35.43;;;20.50;;
35578;SDS011;21687;48.900;9.188;2024-01-07T04:21:09;34.60;;;21.00;;
35578;SDS011;21687;48.900;9.188;2024-01-07T04:23:35;32.80;;;21.10;;
35578;SDS011;21687;48.900;9.188;2024-01-07T04:26:04;34.17;;;19.27;;
35578;SDS011;21687;48.900;9.188;2024-01-07T04:28:30;34.33;;;20.33;;
35578;SDS011;21687;48.900;9.188;2024-01-07T04:30:56;34.60;;;20.13;;
35578;SDS011;21687;48.900;9.188;2024-01-07T04:33:23;32.73;;;19.53;;
35578;SDS011;21687;48.900;9.188;2024-01-07T04:35:49;29.83;;;17.37;;
35578;SDS011;21687;48.900;9.188;2024-01-07T04:38:15;26.17;;;17.27;;
35578;SDS011;21687;48.900;9.188;2024-01-07T04:40:42;30.67;;;17.77;;
35578;SDS011;21687;48.900;9.188;2024-01-07T04:43:08;30.53;;;18.30;;
35578;SDS011;21687;48.900;9.188;2024-01-07T04:45:34;26.63;;;17.23;;
35578;SDS011;21687;48.900;9.188;2024-01-07T04:48:01;28.37;;;16.30;;
35578;SDS011;21687;48.900;9.188;2024-01-07T04:50:27;27.10;;;16.33;;
35578;SDS011;21687;48.900;9.188;2024-01-07T04:52:54;27.30;;;16.90;;
35578;SDS011;21687;48.900;9.188;2024-01-07T04:55:20;24.10;;;16.00;;
35578;SDS011;21687;48.900;9.188;2024-01-07T04:57:46;29.03;;;17.83;;
35578;SDS011;21687;48.900;9.188;2024-01-07T05:00:13;26.53;;;16.70;;
35578;SDS011;21687;48.900;9.188;2024-01-07T05:02:39;24.77;;;16.23;;
35578;SDS011;21687;48.900;9.188;2024-01-07T05:05:07;28.33;;;17.83;;
35578;SDS011;21687;48.900;9.188;2024-01-07T05:07:34;25.90;;;16.07;;
35578;SDS011;21687;48.900;9.188;2024-01-07T05:10:01;26.53;;;16.80;;
35578;SDS011;21687;48.900;9.188;2024-01-07T05:12:28;28.87;;;16.57;;
35578;SDS011;21687;48.900;9.188;2024-01-07T05:14:55;29.47;;;17.00;;
35578;SDS011;21687;48.900;9.188;2024-01-07T05:17:21;28.87;;;17.43;;
35578;SDS011;21687;48.900;9.188;2024-01-07T05:19:47;27.97;;;16.53;;
35578;SDS011;21687;48.900;9.188;2024-01-07T05:22:14;25.63;;;15.87;;
35578;SDS011;21687;48.900;9.188;2024-01-07T05:24:40;25.83;;;16.00;;
35578;SDS011;21687;48.900;9.188;2024-01-07T05:27:07;26.17;;;16.17;;
35578;SDS011;21687;48.900;9.188;2024-01-07T05:29:34;28.07;;;16.53;;
35578;SDS011;21687;48.900;9.188;2024-01-07T05:32:00;25.80;;;16.27;;
35578;SDS011;21687;48.900;9.188;2024-01-07T05:34:28;27.97;;;16.70;;
35578;SDS011;21687;48.900;9.188;2024-01-07T05:36:55;26.17;;;16.90;;
35578;SDS011;21687;48.900;9.188;2024-01-07T05:39:21;25.47;;;16.07;;
35578;SDS011;21687;48.900;9.188;2024-01-07T05:41:48;24.27;;;15.83;;
35578;SDS011;21687;48.900;9.188;2024-01-07T05:44:14;28.53;;;17.13;;
35578;SDS011;21687;48.900;9.188;2024-01-07T05:46:41;27.40;;;16.17;;
35578;SDS011;21687;48.900;9.188;2024-01-07T05:49:08;23.30;;;15.90;;
35578;SDS011;21687;48.900;9.188;2024-01-07T05:51:38;23.70;;;15.73;;
35578;SDS011;21687;48.900;9.188;2024-01-07T05:54:07;25.70;;;16.13;;
35578;SDS011;21687;48.900;9.188;2024-01-07T05:56:40;25.80;;;15.70;;
35578;SDS011;21687;48.900;9.188;2024-01-07T05:59:07;24.10;;;15.90;;
35578;SDS011;21687;48.900;9.188;2024-01-07T06:01:34;23.57;;;15.73;;
35578;SDS011;21687;48.900;9.188;2024-01-07T06:04:00;25.03;;;16.53;;
35578;SDS011;21687;48.900;9.188;2024-01-07T06:06:27;23.70;;;15.40;;
35578;SDS011;21687;48.900;9.188;2024-01-07T06:08:53;24.13;;;15.90;;
35578;SDS011;21687;48.900;9.188;2024-01-07T06:11:20;23.73;;;16.97;;
35578;SDS011;21687;48.900;9.188;2024-01-07T06:13:46;23.43;;;16.10;;
35578;SDS011;21687;48.900;9.188;2024-01-07T06:16:12;22.27;;;15.33;;
35578;SDS011;21687;48.900;9.188;2024-01-07T06:18:39;19.67;;;15.03;;
35578;SDS011;21687;48.900;9.188;2024-01-07T06:21:05;21.60;;;15.03;;
35578;SDS011;21687;48.900;9.188;2024-01-07T06:23:32;20.63;;;15.33;;
35578;SDS011;21687;48.900;9.188;2024-01-07T06:25:59;22.80;;;15.20;;
35578;SDS011;21687;48.900;9.188;2024-01-07T06:28:27;18.50;;;15.10;;
35578;SDS011;21687;48.900;9.188;2024-01-07T06:30:54;21.17;;;14.57;;
35578;SDS011;21687;48.900;9.188;2024-01-07T06:33:20;16.67;;;13.20;;
35578;SDS011;21687;48.900;9.188;2024-01-07T06:35:47;15.87;;;13.17;;
35578;SDS011;21687;48.900;9.188;2024-01-07T06:38:13;15.33;;;13.33;;
35578;SDS011;21687;48.900;9.188;2024-01-07T06:40:40;15.63;;;12.20;;
35578;SDS011;21687;48.900;9.188;2024-01-07T06:43:06;16.43;;;12.60;;
35578;SDS011;21687;48.900;9.188;2024-01-07T06:45:33;19.47;;;12.63;;
35578;SDS011;21687;48.900;9.188;2024-01-07T06:47:59;15.40;;;13.00;;
35578;SDS011;21687;48.900;9.188;2024-01-07T06:50:26;13.93;;;11.20;;
35578;SDS011;21687;48.900;9.188;2024-01-07T06:52:52;16.53;;;12.17;;
35578;SDS011;21687;48.900;9.188;2024-01-07T06:55:19;17.00;;;11.13;;
35578;SDS011;21687;48.900;9.188;2024-01-07T06:57:46;18.33;;;11.37;;
35578;SDS011;21687;48.900;9.188;2024-01-07T07:00:13;15.33;;;10.80;;
35578;SDS011;21687;48.900;9.188;2024-01-07T07:02:40;15.10;;;10.73;;
35578;SDS011;21687;48.900;9.188;2024-01-07T07:05:06;10.40;;;9.07;;
35578;SDS011;21687;48.900;9.188;2024-01-07T07:07:34;10.27;;;9.17;;
35578;SDS011;21687;48.900;9.188;2024-01-07T07:10:01;10.77;;;8.67;;
35578;SDS011;21687;48.900;9.188;2024-01-07T07:12:27;11.17;;;8.77;;
35578;SDS011;21687;48.900;9.188;2024-01-07T07:14:54;8.97;;;7.87;;
35578;SDS011;21687;48.900;9.188;2024-01-07T07:17:20;10.27;;;8.10;;
35578;SDS011;21687;48.900;9.188;2024-01-07T07:19:46;10.33;;;8.23;;
35578;SDS011;21687;48.900;9.188;2024-01-07T07:22:13;10.37;;;8.07;;
35578;SDS011;21687;48.900;9.188;2024-01-07T07:24:40;9.80;;;7.60;;
35578;SDS011;21687;48.900;9.188;2024-01-07T07:27:07;9.37;;;7.07;;
35578;SDS011;21687;48.900;9.188;2024-01-07T07:29:33;10.97;;;7.80;;
35578;SDS011;21687;48.900;9.188;2024-01-07T07:32:00;10.37;;;8.13;;
35578;SDS011;21687;48.900;9.188;2024-01-07T07:34:26;9.53;;;7.80;;
35578;SDS011;21687;48.900;9.188;2024-01-07T07:36:53;10.80;;;8.40;;
35578;SDS011;21687;48.900;9.188;2024-01-07T07:39:20;11.03;;;8.07;;
35578;SDS011;21687;48.900;9.188;2024-01-07T07:41:47;10.30;;;7.77;;
35578;SDS011;21687;48.900;9.188;2024-01-07T07:44:13;10.23;;;7.73;;
35578;SDS011;21687;48.900;9.188;2024-01-07T07:46:39;7.40;;;6.40;;
35578;SDS011;21687;48.900;9.188;2024-01-07T07:49:06;8.87;;;6.57;;
35578;SDS011;21687;48.900;9.188;2024-01-07T07:51:32;8.87;;;6.77;;
35578;SDS011;21687;48.900;9.188;2024-01-07T07:53:59;7.07;;;5.90;;
35578;SDS011;21687;48.900;9.188;2024-01-07T07:56:25;10.57;;;6.97;;
35578;SDS011;21687;48.900;9.188;2024-01-07T07:58:51;8.27;;;6.60;;
35578;SDS011;21687;48.900;9.188;2024-01-07T08:01:18;7.27;;;6.23;;
35578;SDS011;21687;48.900;9.188;2024-01-07T08:03:45;8.13;;;6.53;;
35578;SDS011;21687;48.900;9.188;2024-01-07T08:06:11;7.90;;;6.77;;
35578;SDS011;21687;48.900;9.188;2024-01-07T08:08:38;8.03;;;6.43;;
35578;SDS011;21687;48.900;9.188;2024-01-07T08:11:04;9.23;;;7.07;;
35578;SDS011;21687;48.900;9.188;2024-01-07T08:13:37;11.17;;;7.53;;
35578;SDS011;21687;48.900;9.188;2024-01-07T08:16:04;9.37;;;7.20;;
35578;SDS011;21687;48.900;9.188;2024-01-07T08:18:31;10.67;;;7.67;;
35578;SDS011;21687;48.900;9.188;2024-01-07T08:20:58;10.47;;;7.23;;
35578;SDS011;21687;48.900;9.188;2024-01-07T08:23:24;10.30;;;7.60;;
35578;SDS011;21687;48.900;9.188;2024-01-07T08:25:51;5.80;;;4.87;;
35578;SDS011;21687;48.900;9.188;2024-01-07T08:28:17;8.23;;;6.53;;
35578;SDS011;21687;48.900;9.188;2024-01-07T08:30:45;8.30;;;5.80;;
35578;SDS011;21687;48.900;9.188;2024-01-07T08:33:12;6.30;;;5.37;;
35578;SDS011;21687;48.900;9.188;2024-01-07T08:35:38;6.77;;;4.87;;
35578;SDS011;21687;48.900;9.188;2024-01-07T08:38:05;5.90;;;4.43;;
35578;SDS011;21687;48.900;9.188;2024-01-07T08:40:31;8.03;;;4.60;;
35578;SDS011;21687;48.900;9.188;2024-01-07T08:42:57;5.67;;;4.50;;
35578;SDS011;21687;48.900;9.188;2024-01-07T08:45:24;6.13;;;4.53;;
35578;SDS011;21687;48.900;9.188;2024-01-07T08:47:50;6.27;;;4.77;;
35578;SDS011;21687;48.900;9.188;2024-01-07T08:50:16;6.10;;;4.97;;
35578;SDS011;21687;48.900;9.188;2024-01-07T08:52:43;6.70;;;5.43;;
35578;SDS011;21687;48.900;9.188;2024-01-07T08:55:11;7.00;;;5.93;;
35578;SDS011;21687;48.900;9.188;2024-01-07T08:57:38;6.63;;;5.73;;
35578;SDS011;21687;48.900;9.188;2024-01-07T09:00:05;7.17;;;6.30;;
35578;SDS011;21687;48.900;9.188;2024-01-07T09:02:34;10.10;;;6.90;;
35578;SDS011;21687;48.900;9.188;2024-01-07T09:05:01;8.67;;;6.50;;
35578;SDS011;21687;48.900;9.188;2024-01-07T09:07:28;9.07;;;6.77;;
35578;SDS011;21687;48.900;9.188;2024-01-07T09:09:54;10.23;;;7.57;;
35578;SDS011;21687;48.900;9.188;2024-01-07T09:12:24;10.33;;;7.23;;
35578;SDS011;21687;48.900;9.188;2024-01-07T09:14:52;9.70;;;6.87;;
35578;SDS011;21687;48.900;9.188;2024-01-07T09:17:18;8.67;;;7.07;;
35578;SDS011;21687;48.900;9.188;2024-01-07T09:19:45;8.27;;;6.57;;
35578;SDS011;21687;48.900;9.188;2024-01-07T09:22:11;8.10;;;6.67;;
35578;SDS011;21687;48.900;9.188;2024-01-07T09:24:37;7.63;;;6.43;;
35578;SDS011;21687;48.900;9.188;2024-01-07T09:27:04;7.90;;;6.37;;
35578;SDS011;21687;48.900;9.188;2024-01-07T09:29:30;9.43;;;7.53;;
35578;SDS011;21687;48.900;9.188;2024-01-07T09:31:57;9.40;;;6.90;;
35578;SDS011;21687;48.900;9.188;2024-01-07T09:34:25;8.53;;;6.17;;
35578;SDS011;21687;48.900;9.188;2024-01-07T09:36:51;7.60;;;6.33;;
35578;SDS011;21687;48.900;9.188;2024-01-07T09:39:18;8.23;;;6.77;;
35578;SDS011;21687;48.900;9.188;2024-01-07T09:41:44;8.97;;;6.73;;
35578;SDS011;21687;48.900;9.188;2024-01-07T09:44:10;8.33;;;6.60;;
35578;SDS011;21687;48.900;9.188;2024-01-07T09:46:38;8.43;;;6.37;;
35578;SDS011;21687;48.900;9.188;2024-01-07T09:49:06;9.00;;;6.63;;
35578;SDS011;21687;48.900;9.188;2024-01-07T09:51:34;8.87;;;6.70;;
35578;SDS011;21687;48.900;9.188;2024-01-07T09:54:03;9.33;;;6.90;;
35578;SDS011;21687;48.900;9.188;2024-01-07T09:56:39;8.43;;;6.17;;
35578;SDS011;21687;48.900;9.188;2024-01-07T09:59:14;9.23;;;6.73;;
35578;SDS011;21687;48.900;9.188;2024-01-07T10:01:43;7.17;;;6.10;;
35578;SDS011;21687;48.900;9.188;2024-01-07T10:04:10;7.90;;;6.10;;
35578;SDS011;21687;48.900;9.188;2024-01-07T10:06:37;7.20;;;5.63;;
35578;SDS011;21687;48.900;9.188;2024-01-07T10:09:05;7.17;;;6.00;;
35578;SDS011;21687;48.900;9.188;2024-01-07T10:11:32;6.63;;;5.57;;
35578;SDS011;21687;48.900;9.188;2024-01-07T10:13:59;6.30;;;5.57;;
35578;SDS011;21687;48.900;9.188;2024-01-07T10:16:25;6.00;;;5.40;;
35578;SDS011;21687;48.900;9.188;2024-01-07T10:18:52;6.77;;;5.30;;
35578;SDS011;21687;48.900;9.188;2024-01-07T10:21:18;6.03;;;4.77;;
35578;SDS011;21687;48.900;9.188;2024-01-07T10:23:45;6.33;;;5.03;;
35578;SDS011;21687;48.900;9.188;2024-01-07T10:26:11;6.17;;;5.13;;
35578;SDS011;21687;48.900;9.188;2024-01-07T10:28:37;6.10;;;5.00;;
35578;SDS011;21687;48.900;9.188;2024-01-07T10:31:06;5.90;;;4.83;;
35578;SDS011;21687;48.900;9.188;2024-01-07T10:33:32;7.93;;;5.47;;
35578;SDS011;21687;48.900;9.188;2024-01-07T10:36:02;5.57;;;4.73;;
35578;SDS011;21687;48.900;9.188;2024-01-07T10:38:31;6.07;;;5.17;;
35578;SDS011;21687;48.900;9.188;2024-01-07T10:41:01;6.10;;;5.03;;
35578;SDS011;21687;48.900;9.188;2024-01-07T10:43:30;7.07;;;5.30;;
35578;SDS011;21687;48.900;9.188;2024-01-07T10:46:00;6.63;;;5.83;;
35578;SDS011;21687;48.900;9.188;2024-01-07T10:48:30;6.30;;;5.20;;
35578;SDS011;21687;48.900;9.188;2024-01-07T10:51:00;6.27;;;5.27;;
35578;SDS011;21687;48.900;9.188;2024-01-07T10:53:27;6.70;;;5.90;;
35578;SDS011;21687;48.900;9.188;2024-01-07T10:56:00;6.80;;;5.30;;
35578;SDS011;21687;48.900;9.188;2024-01-07T10:58:31;6.97;;;5.80;;
35578;SDS011;21687;48.900;9.188;2024-01-07T11:01:02;6.73;;;5.90;;
35578;SDS011;21687;48.900;9.188;2024-01-07T11:03:33;6.13;;;5.53;;
35578;SDS011;21687;48.900;9.188;2024-01-07T11:06:08;5.90;;;5.30;;
35578;SDS011;21687;48.900;9.188;2024-01-07T11:08:43;6.67;;;4.90;;
35578;SDS011;21687;48.900;9.188;2024-01-07T11:11:21;6.70;;;5.80;;
35578;SDS011;21687;48.900;9.188;2024-01-07T11:13:51;7.30;;;5.57;;
35578;SDS011;21687;48.900;9.188;2024-01-07T11:16:40;7.33;;;5.90;;
35578;SDS011;21687;48.900;9.188;2024-01-07T11:19:07;7.83;;;5.67;;
35578;SDS011;21687;48.900;9.188;2024-01-07T11:21:34;5.83;;;5.07;;
35578;SDS011;21687;48.900;9.188;2024-01-07T11:24:00;6.00;;;4.90;;
35578;SDS011;21687;48.900;9.188;2024-01-07T11:26:28;6.40;;;5.40;;
35578;SDS011;21687;48.900;9.188;2024-01-07T11:28:56;5.73;;;4.90;;
35578;SDS011;21687;48.900;9.188;2024-01-07T11:34:05;5.73;;;5.13;;
35578;SDS011;21687;48.900;9.188;2024-01-07T11:36:35;5.97;;;4.97;;
35578;SDS011;21687;48.900;9.188;2024-01-07T11:39:03;6.27;;;5.20;;
35578;SDS011;21687;48.900;9.188;2024-01-07T11:41:32;7.27;;;5.37;;
35578;SDS011;21687;48.900;9.188;2024-01-07T11:44:00;7.03;;;6.20;;
35578;SDS011;21687;48.900;9.188;2024-01-07T11:46:28;7.83;;;6.13;;
35578;SDS011;21687;48.900;9.188;2024-01-07T11:48:58;8.70;;;6.63;;
35578;SDS011;21687;48.900;9.188;2024-01-07T11:51:28;7.23;;;6.47;;
35578;SDS011;21687;48.900;9.188;2024-01-07T11:53:58;7.77;;;6.03;;
35578;SDS011;21687;48.900;9.188;2024-01-07T11:56:25;8.97;;;6.83;;
35578;SDS011;21687;48.900;9.188;2024-01-07T11:58:52;8.87;;;6.80;;
35578;SDS011;21687;48.900;9.188;2024-01-07T12:01:18;9.40;;;7.03;;
35578;SDS011;21687;48.900;9.188;2024-01-07T12:03:46;9.70;;;7.63;;
35578;SDS011;21687;48.900;9.188;2024-01-07T12:06:13;9.70;;;7.53;;
35578;SDS011;21687;48.900;9.188;2024-01-07T12:08:43;11.07;;;7.20;;
35578;SDS011;21687;48.900;9.188;2024-01-07T12:11:13;7.50;;;6.53;;
35578;SDS011;21687;48.900;9.188;2024-01-07T12:13:41;9.60;;;7.70;;
35578;SDS011;21687;48.900;9.188;2024-01-07T12:16:08;10.60;;;7.87;;
35578;SDS011;21687;48.900;9.188;2024-01-07T12:18:36;10.50;;;7.87;;
35578;SDS011;21687;48.900;9.188;2024-01-07T12:21:03;10.47;;;7.63;;
35578;SDS011;21687;48.900;9.188;2024-01-07T12:23:33;10.00;;;8.07;;
35578;SDS011;21687;48.900;9.188;2024-01-07T12:26:09;9.83;;;7.90;;
35578;SDS011;21687;48.900;9.188;2024-01-07T12:28:37;13.03;;;8.53;;
35578;SDS011;21687;48.900;9.188;2024-01-07T12:31:04;10.97;;;8.07;;
35578;SDS011;21687;48.900;9.188;2024-01-07T12:33:31;12.30;;;8.80;;
35578;SDS011;21687;48.900;9.188;2024-01-07T12:35:59;11.57;;;9.23;;
35578;SDS011;21687;48.900;9.188;2024-01-07T12:38:26;9.30;;;8.20;;
35578;SDS011;21687;48.900;9.188;2024-01-07T12:40:53;10.10;;;8.00;;
35578;SDS011;21687;48.900;9.188;2024-01-07T12:43:20;11.43;;;9.67;;
35578;SDS011;21687;48.900;9.188;2024-01-07T12:45:48;11.83;;;8.80;;
35578;SDS011;21687;48.900;9.188;2024-01-07T12:48:14;12.20;;;9.37;;
35578;SDS011;21687;48.900;9.188;2024-01-07T12:50:41;11.93;;;8.97;;
35578;SDS011;21687;48.900;9.188;2024-01-07T12:53:08;10.57;;;8.80;;
35578;SDS011;21687;48.900;9.188;2024-01-07T12:55:35;12.70;;;9.07;;
35578;SDS011;21687;48.900;9.188;2024-01-07T12:58:02;9.90;;;8.47;;
35578;SDS011;21687;48.900;9.188;2024-01-07T13:00:28;11.23;;;9.07;;
35578;SDS011;21687;48.900;9.188;2024-01-07T13:02:55;11.23;;;8.67;;
35578;SDS011;21687;48.900;9.188;2024-01-07T13:05:22;11.03;;;8.43;;
35578;SDS011;21687;48.900;9.188;2024-01-07T13:07:49;11.03;;;8.80;;
35578;SDS011;21687;48.900;9.188;2024-01-07T13:10:16;13.00;;;9.10;;
35578;SDS011;21687;48.900;9.188;2024-01-07T13:12:42;12.57;;;9.47;;
35578;SDS011;21687;48.900;9.188;2024-01-07T13:15:09;11.73;;;9.23;;
35578;SDS011;21687;48.900;9.188;2024-01-07T13:17:36;11.57;;;8.60;;
35578;SDS011;21687;48.900;9.188;2024-01-07T13:20:03;11.33;;;8.80;;
35578;SDS011;21687;48.900;9.188;2024-01-07T13:22:32;11.23;;;8.50;;
35578;SDS011;21687;48.900;9.188;2024-01-07T13:24:59;10.03;;;8.37;;
35578;SDS011;21687;48.900;9.188;2024-01-07T13:27:26;9.17;;;7.90;;
35578;SDS011;21687;48.900;9.188;2024-01-07T13:29:52;12.53;;;8.87;;
35578;SDS011;21687;48.900;9.188;2024-01-07T13:32:18;11.03;;;8.83;;
35578;SDS011;21687;48.900;9.188;2024-01-07T13:34:45;10.60;;;7.80;;
35578;SDS011;21687;48.900;9.188;2024-01-07T13:37:11;11.60;;;9.90;;
35578;SDS011;21687;48.900;9.188;2024-01-07T13:39:38;13.03;;;10.73;;
35578;SDS011;21687;48.900;9.188;2024-01-07T13:42:05;12.17;;;9.53;;
35578;SDS011;21687;48.900;9.188;2024-01-07T13:44:31;12.93;;;9.27;;
35578;SDS011;21687;48.900;9.188;2024-01-07T13:46:59;14.30;;;10.40;;
35578;SDS011;21687;48.900;9.188;2024-01-07T13:49:30;13.17;;;10.37;;
35578;SDS011;21687;48.900;9.188;2024-01-07T13:51:57;14.43;;;11.17;;
35578;SDS011;21687;48.900;9.188;2024-01-07T13:54:24;12.53;;;10.27;;
35578;SDS011;21687;48.900;9.188;2024-01-07T13:56:50;12.97;;;9.90;;
35578;SDS011;21687;48.900;9.188;2024-01-07T13:59:17;14.40;;;11.10;;
35578;SDS011;21687;48.900;9.188;2024-01-07T14:01:43;14.73;;;11.37;;
35578;SDS011;21687;48.900;9.188;2024-01-07T14:04:10;15.30;;;10.30;;
35578;SDS011;21687;48.900;9.188;2024-01-07T14:06:36;15.63;;;11.23;;
35578;SDS011;21687;48.900;9.188;2024-01-07T14:09:02;13.53;;;10.77;;
35578;SDS011;21687;48.900;9.188;2024-01-07T14:11:31;15.23;;;10.50;;
35578;SDS011;21687;48.900;9.188;2024-01-07T14:13:58;14.10;;;11.00;;
35578;SDS011;21687;48.900;9.188;2024-01-07T14:16:24;16.03;;;11.10;;
35578;SDS011;21687;48.900;9.188;2024-01-07T14:18:50;14.60;;;11.37;;
35578;SDS011;21687;48.900;9.188;2024-01-07T14:21:17;17.20;;;12.43;;
35578;SDS011;21687;48.900;9.188;2024-01-07T14:23:43;11.63;;;9.07;;
35578;SDS011;21687;48.900;9.188;2024-01-07T14:26:11;13.23;;;9.23;;
35578;SDS011;21687;48.900;9.188;2024-01-07T14:28:37;13.13;;;9.77;;
35578;SDS011;21687;48.900;9.188;2024-01-07T14:31:04;13.13;;;10.13;;
35578;SDS011;21687;48.900;9.188;2024-01-07T14:33:30;13.20;;;10.03;;
35578;SDS011;21687;48.900;9.188;2024-01-07T14:35:56;12.80;;;9.70;;